createdAt,value
2018-12-18T00:01:30.778Z,6.87
2018-12-18T00:03:58.423Z,7.03
2018-12-18T00:06:25.955Z,7.20
2018-12-18T00:08:53.590Z,6.43
2018-12-18T00:11:22.138Z,6.70
2018-12-18T00:13:49.774Z,7.20
2018-12-18T00:16:17.376Z,6.83
2018-12-18T00:18:44.906Z,7.07
2018-12-18T00:21:12.512Z,7.97
2018-12-18T00:23:40.028Z,6.40
2018-12-18T00:26:07.591Z,6.07
2018-12-18T00:28:35.201Z,7.50
2018-12-18T00:31:02.734Z,6.53
2018-12-18T00:33:30.390Z,6.70
2018-12-18T00:35:57.924Z,5.50
2018-12-18T00:38:25.447Z,5.10
2018-12-18T00:40:53.032Z,6.00
2018-12-18T00:43:20.573Z,5.27
2018-12-18T00:45:48.230Z,5.40
2018-12-18T00:48:15.824Z,6.10
2018-12-18T00:50:43.373Z,6.00
2018-12-18T00:53:11.058Z,5.10
2018-12-18T00:55:38.660Z,5.37
2018-12-18T00:58:06.242Z,5.60
2018-12-18T01:00:33.906Z,4.77
2018-12-18T01:03:01.460Z,6.10
2018-12-18T01:05:28.985Z,5.37
2018-12-18T01:07:56.578Z,6.10
2018-12-18T01:10:24.164Z,5.10
2018-12-18T01:12:51.713Z,5.23
2018-12-18T01:15:19.449Z,4.57
2018-12-18T01:17:47.171Z,4.80
2018-12-18T01:20:14.670Z,4.37
2018-12-18T01:22:42.196Z,4.53
2018-12-18T01:25:09.858Z,4.63
2018-12-18T01:27:37.414Z,4.60
2018-12-18T01:30:05.181Z,5.00
2018-12-18T01:32:32.715Z,4.80
2018-12-18T01:35:00.280Z,4.70
2018-12-18T01:37:27.799Z,4.47
2018-12-18T01:39:55.404Z,5.20
2018-12-18T01:42:22.935Z,4.43
2018-12-18T01:44:50.632Z,4.63
2018-12-18T01:47:18.149Z,4.57
2018-12-18T01:49:45.719Z,4.63
2018-12-18T01:52:13.283Z,4.03
2018-12-18T01:54:40.818Z,4.30
2018-12-18T01:57:08.391Z,5.40
2018-12-18T01:59:36.027Z,5.00
2018-12-18T02:02:03.711Z,4.60
2018-12-18T02:04:31.234Z,5.63
2018-12-18T02:06:58.799Z,4.37
2018-12-18T02:09:26.340Z,4.90
2018-12-18T02:11:54.842Z,4.67
2018-12-18T02:14:22.385Z,5.20
2018-12-18T02:16:49.948Z,5.10
2018-12-18T02:19:17.659Z,4.40
2018-12-18T02:21:45.186Z,5.27
2018-12-18T02:24:12.781Z,5.93
2018-12-18T02:26:40.306Z,6.63
2018-12-18T02:29:07.967Z,5.57
2018-12-18T02:31:35.481Z,5.73
2018-12-18T02:34:03.100Z,5.27
2018-12-18T02:36:30.646Z,5.70
2018-12-18T02:38:58.218Z,5.80
2018-12-18T02:41:26.001Z,6.00
2018-12-18T02:43:53.547Z,6.53
2018-12-18T02:46:21.098Z,5.40
2018-12-18T02:48:48.720Z,5.87
2018-12-18T02:51:16.287Z,5.60
2018-12-18T02:53:43.869Z,6.70
2018-12-18T02:56:11.417Z,5.37
2018-12-18T02:58:39.003Z,5.97
2018-12-18T03:01:06.647Z,5.90
2018-12-18T03:03:34.201Z,5.37
2018-12-18T03:06:01.744Z,6.00
2018-12-18T03:08:29.715Z,6.07
2018-12-18T03:10:57.286Z,5.27
2018-12-18T03:13:24.896Z,6.37
2018-12-18T03:15:52.445Z,5.00
2018-12-18T03:18:20.031Z,5.77
2018-12-18T03:20:47.549Z,5.30
2018-12-18T03:23:15.112Z,5.03
2018-12-18T03:25:42.704Z,4.63
2018-12-18T03:28:10.213Z,4.90
2018-12-18T03:30:38.528Z,4.80
2018-12-18T03:33:06.047Z,5.00
2018-12-18T03:35:33.888Z,4.33
2018-12-18T03:38:01.417Z,4.83
2018-12-18T03:40:29.091Z,4.53
2018-12-18T03:42:56.652Z,5.90
2018-12-18T03:45:24.173Z,4.90
2018-12-18T03:47:51.721Z,4.40
2018-12-18T03:50:19.341Z,4.53
2018-12-18T03:52:46.923Z,4.70
2018-12-18T03:55:14.474Z,5.47
2018-12-18T03:57:42.063Z,5.10
2018-12-18T04:00:11.531Z,4.47
2018-12-18T04:02:39.159Z,4.60
2018-12-18T04:05:06.817Z,4.87
2018-12-18T04:07:34.370Z,6.30
2018-12-18T04:10:01.936Z,4.77
2018-12-18T04:12:29.516Z,4.23
2018-12-18T04:14:57.022Z,4.80
2018-12-18T04:17:24.599Z,4.77
2018-12-18T04:19:52.151Z,5.60
2018-12-18T04:22:19.855Z,4.10
2018-12-18T04:24:47.494Z,3.80
2018-12-18T04:27:15.157Z,3.90
2018-12-18T04:29:42.694Z,3.67
2018-12-18T04:32:10.222Z,4.00
2018-12-18T04:34:42.957Z,4.27
2018-12-18T04:37:07.276Z,4.50
2018-12-18T04:39:34.820Z,4.17
2018-12-18T04:42:03.304Z,3.70
2018-12-18T04:44:30.881Z,3.97
2018-12-18T04:46:58.442Z,3.20
2018-12-18T04:49:26.051Z,3.97
2018-12-18T04:51:53.820Z,3.17
2018-12-18T04:54:21.392Z,3.67
2018-12-18T04:56:48.919Z,3.00
2018-12-18T04:59:16.471Z,3.73
2018-12-18T05:01:45.087Z,3.20
2018-12-18T05:04:12.618Z,3.63
2018-12-18T05:06:40.141Z,2.70
2018-12-18T05:09:07.744Z,3.50
2018-12-18T05:11:35.411Z,2.60
2018-12-18T05:14:02.950Z,3.43
2018-12-18T05:16:30.497Z,3.00
2018-12-18T05:18:58.014Z,3.07
2018-12-18T05:21:25.568Z,3.83
2018-12-18T05:23:53.111Z,2.90
2018-12-18T05:26:20.678Z,2.80
2018-12-18T05:28:48.247Z,2.73
2018-12-18T05:31:16.030Z,2.70
2018-12-18T05:33:43.572Z,2.70
2018-12-18T05:36:11.109Z,2.90
2018-12-18T05:38:38.635Z,2.20
2018-12-18T05:41:06.185Z,2.30
2018-12-18T05:43:33.718Z,2.67
2018-12-18T05:46:01.314Z,1.77
2018-12-18T05:48:29.399Z,2.03
2018-12-18T05:50:56.995Z,2.37
2018-12-18T05:53:24.531Z,2.40
2018-12-18T05:55:52.204Z,2.80
2018-12-18T05:58:19.892Z,2.67
2018-12-18T06:00:47.439Z,2.83
2018-12-18T06:03:14.990Z,3.33
2018-12-18T06:05:42.607Z,3.30
2018-12-18T06:08:10.125Z,2.37
2018-12-18T06:10:37.696Z,2.23
2018-12-18T06:13:05.236Z,2.80
2018-12-18T06:15:32.809Z,2.30
2018-12-18T06:18:00.350Z,2.97
2018-12-18T06:20:29.117Z,3.40
2018-12-18T06:22:56.657Z,3.20
2018-12-18T06:25:24.226Z,2.50
2018-12-18T06:27:51.797Z,2.53
2018-12-18T06:30:19.347Z,2.23
2018-12-18T06:32:46.936Z,2.53
2018-12-18T06:35:14.473Z,2.87
2018-12-18T06:37:42.118Z,2.50
2018-12-18T06:40:09.622Z,3.60
2018-12-18T06:42:37.213Z,3.17
2018-12-18T06:45:06.470Z,3.30
2018-12-18T06:47:33.996Z,2.40
2018-12-18T06:50:01.575Z,2.13
2018-12-18T06:52:29.242Z,2.60
2018-12-18T06:54:56.760Z,4.00
2018-12-18T06:57:24.290Z,2.07
2018-12-18T06:59:51.850Z,5.00
2018-12-18T07:02:19.424Z,2.37
2018-12-18T07:04:47.270Z,2.47
2018-12-18T07:07:14.810Z,3.30
2018-12-18T07:09:42.365Z,2.30
2018-12-18T07:12:09.917Z,2.37
2018-12-18T07:14:37.454Z,2.50
2018-12-18T07:17:05.297Z,2.67
2018-12-18T07:19:32.960Z,2.30
2018-12-18T07:22:00.487Z,2.47
2018-12-18T07:24:28.039Z,2.30
2018-12-18T07:26:55.562Z,2.90
2018-12-18T07:29:23.159Z,1.90
2018-12-18T07:31:50.851Z,2.70
2018-12-18T07:34:18.453Z,2.80
2018-12-18T07:36:46.025Z,2.40
2018-12-18T07:39:13.559Z,2.33
2018-12-18T07:41:41.095Z,3.60
2018-12-18T07:44:08.641Z,2.60
2018-12-18T07:46:36.164Z,2.67
2018-12-18T07:49:03.708Z,2.43
2018-12-18T07:51:31.404Z,3.10
2018-12-18T07:53:58.930Z,2.70
2018-12-18T07:56:26.574Z,2.60
2018-12-18T07:58:54.183Z,2.37
2018-12-18T08:01:22.172Z,2.60
2018-12-18T08:03:49.738Z,2.30
2018-12-18T08:06:17.253Z,2.20
2018-12-18T08:08:44.787Z,3.37
2018-12-18T08:11:13.056Z,2.87
2018-12-18T08:13:40.618Z,1.87
2018-12-18T08:16:08.158Z,2.63
2018-12-18T08:18:36.055Z,1.87
2018-12-18T08:21:03.573Z,2.60
2018-12-18T08:23:31.144Z,1.80
2018-12-18T08:25:58.798Z,2.07
2018-12-18T08:28:26.303Z,2.20
2018-12-18T08:30:54.275Z,1.30
2018-12-18T08:33:21.781Z,1.77
2018-12-18T08:35:49.448Z,2.10
2018-12-18T08:38:17.011Z,2.00
2018-12-18T08:40:44.601Z,2.20
2018-12-18T08:43:12.121Z,1.63
2018-12-18T08:45:39.709Z,1.73
2018-12-18T08:48:07.227Z,2.40
2018-12-18T08:50:34.763Z,1.73
2018-12-18T08:53:02.289Z,1.80
2018-12-18T08:55:29.821Z,1.90
2018-12-18T08:57:57.385Z,1.83
2018-12-18T09:00:25.059Z,1.40
2018-12-18T09:02:52.654Z,2.10
2018-12-18T09:05:20.212Z,2.70
2018-12-18T09:07:47.790Z,1.30
2018-12-18T09:10:15.452Z,1.77
2018-12-18T09:12:43.022Z,1.90
2018-12-18T09:15:16.203Z,1.70
2018-12-18T09:17:45.710Z,2.00
2018-12-18T09:20:13.671Z,2.13
2018-12-18T09:22:41.264Z,1.97
2018-12-18T09:25:08.785Z,1.80
2018-12-18T09:27:36.299Z,1.20
2018-12-18T09:30:06.806Z,1.90
2018-12-18T09:32:34.440Z,1.67
2018-12-18T09:35:01.987Z,1.90
2018-12-18T09:37:29.542Z,2.40
2018-12-18T09:39:57.061Z,2.07
2018-12-18T09:42:30.396Z,2.20
2018-12-18T09:44:58.072Z,2.17
2018-12-18T09:47:26.311Z,1.73
2018-12-18T09:49:53.972Z,2.30
2018-12-18T09:52:21.625Z,1.73
2018-12-18T09:54:49.171Z,2.40
2018-12-18T09:57:22.485Z,1.50
2018-12-18T09:59:50.114Z,1.70
2018-12-18T10:02:17.751Z,1.57
2018-12-18T10:04:45.305Z,1.73
2018-12-18T10:07:12.831Z,1.37
2018-12-18T10:09:40.398Z,1.20
2018-12-18T10:12:07.951Z,1.50
2018-12-18T10:14:36.436Z,1.17
2018-12-18T10:17:03.970Z,1.00
2018-12-18T10:19:31.514Z,2.10
2018-12-18T10:21:59.046Z,1.20
2018-12-18T10:24:26.631Z,1.50
2018-12-18T10:26:54.174Z,2.30
2018-12-18T10:29:21.737Z,1.37
2018-12-18T10:31:49.316Z,1.40
2018-12-18T10:34:16.955Z,1.33
2018-12-18T10:36:44.521Z,1.40
2018-12-18T10:39:12.083Z,8.53
2018-12-18T10:41:39.649Z,2.70
2018-12-18T10:44:07.216Z,2.07
2018-12-18T10:46:34.863Z,1.57
2018-12-18T10:49:03.386Z,1.53
2018-12-18T10:51:30.914Z,2.43
2018-12-18T10:53:58.518Z,1.17
2018-12-18T10:56:26.162Z,1.60
2018-12-18T10:58:53.699Z,1.37
2018-12-18T11:04:30.362Z,1.40
2018-12-18T11:06:57.992Z,1.30
2018-12-18T11:09:25.593Z,1.60
2018-12-18T11:11:53.210Z,1.50
2018-12-18T11:14:20.818Z,1.10
2018-12-18T11:16:48.365Z,1.50
2018-12-18T11:19:16.011Z,1.07
2018-12-18T11:21:43.664Z,1.23
2018-12-18T11:24:11.223Z,1.93
2018-12-18T11:26:38.750Z,1.40
2018-12-18T11:29:06.306Z,1.60
2018-12-18T11:31:33.887Z,1.57
2018-12-18T11:34:01.429Z,1.00
2018-12-18T11:36:29.098Z,1.63
2018-12-18T11:38:56.638Z,1.23
2018-12-18T11:41:24.188Z,1.60
2018-12-18T11:43:51.878Z,1.40
2018-12-18T11:46:19.373Z,0.93
2018-12-18T11:48:46.973Z,1.30
2018-12-18T11:51:14.640Z,1.33
2018-12-18T11:53:42.177Z,1.40
2018-12-18T11:56:09.821Z,1.30
2018-12-18T11:58:38.463Z,1.27
2018-12-18T12:01:06.159Z,1.60
2018-12-18T12:03:33.705Z,1.63
2018-12-18T12:06:01.235Z,1.07
2018-12-18T12:08:28.777Z,1.33
2018-12-18T12:10:56.338Z,1.00
2018-12-18T12:13:24.050Z,1.47
2018-12-18T12:15:51.718Z,1.40
2018-12-18T12:18:19.252Z,1.07
2018-12-18T12:20:46.801Z,1.57
2018-12-18T12:23:14.384Z,1.13
2018-12-18T12:25:42.101Z,1.13
2018-12-18T12:28:09.630Z,1.50
2018-12-18T12:30:37.210Z,1.23
2018-12-18T12:33:04.767Z,1.53
2018-12-18T12:35:33.054Z,1.47
2018-12-18T12:38:00.623Z,2.37
2018-12-18T12:40:29.676Z,1.13
2018-12-18T12:42:57.584Z,1.27
2018-12-18T12:45:25.165Z,0.90
2018-12-18T12:47:52.833Z,5.67
2018-12-18T12:50:20.484Z,11.00
2018-12-18T12:52:47.999Z,2.83
2018-12-18T12:55:15.562Z,1.53
2018-12-18T12:57:43.088Z,1.60
2018-12-18T13:00:10.966Z,1.40
2018-12-18T13:02:38.719Z,1.43
2018-12-18T13:05:06.395Z,1.53
2018-12-18T13:07:33.990Z,1.33
2018-12-18T13:10:01.527Z,1.27
2018-12-18T13:12:29.954Z,2.00
2018-12-18T13:14:57.511Z,1.80
2018-12-18T13:17:25.025Z,3.17
2018-12-18T13:19:52.578Z,1.93
2018-12-18T13:22:20.158Z,1.10
2018-12-18T13:24:47.730Z,2.77
2018-12-18T13:27:15.286Z,0.97
2018-12-18T13:29:43.140Z,1.57
2018-12-18T13:32:10.870Z,1.93
2018-12-18T13:34:38.441Z,2.47
2018-12-18T13:37:06.037Z,1.97
2018-12-18T13:39:33.629Z,2.60
2018-12-18T13:42:01.251Z,1.40
2018-12-18T13:44:28.795Z,1.67
2018-12-18T13:46:56.398Z,2.10
2018-12-18T13:49:24.107Z,1.97
2018-12-18T13:51:51.645Z,1.47
2018-12-18T13:54:19.187Z,1.60
2018-12-18T13:56:46.771Z,1.80
2018-12-18T13:59:14.306Z,1.83
2018-12-18T14:01:41.925Z,1.90
2018-12-18T14:04:09.461Z,2.70
2018-12-18T14:06:37.064Z,1.77
2018-12-18T14:09:06.703Z,1.97
2018-12-18T14:11:34.276Z,1.60
2018-12-18T14:14:01.982Z,2.20
2018-12-18T14:16:29.643Z,1.70
2018-12-18T14:18:57.161Z,1.60
2018-12-18T14:21:24.717Z,2.40
2018-12-18T14:23:52.286Z,1.93
2018-12-18T14:26:20.049Z,1.70
2018-12-18T14:28:47.583Z,2.50
2018-12-18T14:31:15.231Z,3.50
2018-12-18T14:33:42.836Z,1.90
2018-12-18T14:36:10.463Z,1.70
2018-12-18T14:38:38.025Z,2.03
2018-12-18T14:41:05.568Z,2.70
2018-12-18T14:43:33.089Z,2.13
2018-12-18T14:46:00.638Z,1.90
2018-12-18T14:48:28.348Z,2.43
2018-12-18T14:50:55.893Z,2.07
2018-12-18T14:53:23.517Z,2.80
2018-12-18T14:55:51.062Z,2.20
2018-12-18T14:58:18.597Z,1.90
2018-12-18T15:00:46.147Z,1.73
2018-12-18T15:03:13.687Z,2.40
2018-12-18T15:05:41.446Z,2.20
2018-12-18T15:08:08.938Z,2.17
2018-12-18T15:10:36.492Z,1.87
2018-12-18T15:13:04.024Z,1.87
2018-12-18T15:15:31.647Z,2.77
2018-12-18T15:17:59.170Z,2.60
2018-12-18T15:20:26.731Z,1.60
2018-12-18T15:22:54.349Z,2.00
2018-12-18T15:25:21.877Z,1.33
2018-12-18T15:27:49.434Z,1.87
2018-12-18T15:30:17.089Z,1.90
2018-12-18T15:32:44.856Z,1.40
2018-12-18T15:35:12.706Z,2.00
2018-12-18T15:37:40.444Z,2.30
2018-12-18T15:40:07.983Z,1.57
2018-12-18T15:42:35.577Z,1.10
2018-12-18T15:45:03.109Z,1.83
2018-12-18T15:47:30.757Z,1.50
2018-12-18T15:49:58.326Z,1.53
2018-12-18T15:52:25.924Z,1.97
2018-12-18T15:54:53.427Z,2.23
2018-12-18T15:57:20.976Z,1.43
2018-12-18T15:59:48.532Z,1.30
2018-12-18T16:02:16.071Z,1.20
2018-12-18T16:04:43.606Z,1.90
2018-12-18T16:07:16.145Z,1.57
2018-12-18T16:09:40.780Z,24.90
2018-12-18T16:12:08.331Z,4.77
2018-12-18T16:14:35.961Z,1.60
2018-12-18T16:17:03.514Z,3.00
2018-12-18T16:19:31.383Z,1.30
2018-12-18T16:21:59.375Z,1.70
2018-12-18T16:24:27.021Z,2.60
2018-12-18T16:26:54.559Z,1.67
2018-12-18T16:29:22.140Z,1.67
2018-12-18T16:31:49.704Z,1.70
2018-12-18T16:34:17.483Z,2.30
2018-12-18T16:36:45.014Z,1.77
2018-12-18T16:39:12.623Z,1.30
2018-12-18T16:41:40.246Z,1.80
2018-12-18T16:44:07.756Z,2.30
2018-12-18T16:46:35.383Z,2.50
2018-12-18T16:49:02.937Z,3.07
2018-12-18T16:51:30.502Z,1.93
2018-12-18T16:53:58.081Z,1.70
2018-12-18T16:56:25.701Z,1.50
2018-12-18T16:58:53.362Z,1.60
2018-12-18T17:01:20.972Z,1.70
2018-12-18T17:03:48.543Z,1.63
2018-12-18T17:06:16.092Z,2.07
2018-12-18T17:08:43.648Z,1.60
2018-12-18T17:11:11.184Z,2.00
2018-12-18T17:13:38.789Z,2.70
2018-12-18T17:16:06.357Z,1.53
2018-12-18T17:18:34.023Z,1.73
2018-12-18T17:21:01.650Z,2.10
2018-12-18T17:23:29.206Z,1.80
2018-12-18T17:25:56.818Z,2.20
2018-12-18T17:28:24.382Z,1.43
2018-12-18T17:30:51.916Z,3.00
2018-12-18T17:33:20.260Z,2.20
2018-12-18T17:35:47.888Z,1.97
2018-12-18T17:38:16.506Z,1.93
2018-12-18T17:40:44.462Z,1.80
2018-12-18T17:43:12.042Z,2.03
2018-12-18T17:45:39.723Z,1.90
2018-12-18T17:48:07.351Z,1.87
2018-12-18T17:50:35.908Z,2.83
2018-12-18T17:53:03.506Z,2.30
2018-12-18T17:55:31.068Z,2.70
2018-12-18T17:57:58.633Z,2.20
2018-12-18T18:00:26.201Z,2.23
2018-12-18T18:02:53.762Z,2.10
2018-12-18T18:05:21.275Z,2.77
2018-12-18T18:07:48.845Z,2.50
2018-12-18T18:10:16.486Z,3.17
2018-12-18T18:12:44.055Z,2.43
2018-12-18T18:15:12.265Z,2.23
2018-12-18T18:17:39.870Z,3.83
2018-12-18T18:20:07.485Z,3.37
2018-12-18T18:22:35.632Z,2.70
2018-12-18T18:25:03.462Z,2.37
2018-12-18T18:27:31.067Z,2.33
2018-12-18T18:29:58.617Z,2.50
2018-12-18T18:32:26.201Z,2.70
2018-12-18T18:34:53.837Z,2.67
2018-12-18T18:37:21.404Z,3.23
2018-12-18T18:39:48.976Z,2.70
2018-12-18T18:42:16.598Z,3.73
2018-12-18T18:44:44.160Z,2.30
2018-12-18T18:47:11.772Z,2.20
2018-12-18T18:49:39.335Z,2.40
2018-12-18T18:52:06.862Z,1.90
2018-12-18T18:54:34.459Z,2.20
2018-12-18T18:57:02.022Z,2.10
2018-12-18T18:59:29.590Z,2.10
2018-12-18T19:01:57.116Z,2.23
2018-12-18T19:04:24.675Z,2.17
2018-12-18T19:06:52.290Z,2.13
2018-12-18T19:09:20.361Z,2.53
2018-12-18T19:11:48.024Z,1.80
2018-12-18T19:14:15.571Z,1.57
2018-12-18T19:16:43.152Z,2.60
2018-12-18T19:19:10.819Z,2.33
2018-12-18T19:21:38.408Z,1.47
2018-12-18T19:24:06.217Z,2.80
2018-12-18T19:26:33.741Z,1.80
2018-12-18T19:29:01.315Z,2.40
2018-12-18T19:31:28.941Z,1.67
2018-12-18T19:33:56.516Z,2.00
2018-12-18T19:36:24.258Z,2.50
2018-12-18T19:38:51.839Z,2.23
2018-12-18T19:41:19.385Z,2.13
2018-12-18T19:43:46.934Z,1.80
2018-12-18T19:46:14.469Z,2.30
2018-12-18T19:48:42.123Z,1.70
2018-12-18T19:51:09.675Z,1.70
2018-12-18T19:53:37.250Z,1.97
2018-12-18T19:56:04.801Z,2.10
2018-12-18T19:58:32.488Z,1.50
2018-12-18T20:01:00.037Z,2.17
2018-12-18T20:03:27.583Z,2.20
2018-12-18T20:05:55.138Z,1.77
2018-12-18T20:08:22.782Z,1.47
2018-12-18T20:10:50.362Z,1.90
2018-12-18T20:13:17.961Z,2.23
2018-12-18T20:15:45.530Z,3.03
2018-12-18T20:18:13.163Z,1.93
2018-12-18T20:20:40.712Z,2.13
2018-12-18T20:23:08.271Z,2.03
2018-12-18T20:25:35.878Z,1.97
2018-12-18T20:28:03.403Z,1.60
2018-12-18T20:30:31.637Z,2.50
2018-12-18T20:32:59.239Z,2.20
2018-12-18T20:35:27.671Z,1.90
2018-12-18T20:37:55.185Z,2.47
2018-12-18T20:40:22.924Z,2.00
2018-12-18T20:42:50.483Z,2.20
2018-12-18T20:45:18.060Z,2.37
2018-12-18T20:47:45.620Z,2.47
2018-12-18T20:50:13.282Z,1.90
2018-12-18T20:52:40.939Z,2.23
2018-12-18T20:55:08.550Z,2.63
2018-12-18T20:57:36.181Z,2.10
2018-12-18T21:00:05.945Z,2.00
2018-12-18T21:02:33.714Z,2.27
2018-12-18T21:05:01.759Z,2.20
2018-12-18T21:07:29.319Z,2.13
2018-12-18T21:09:57.054Z,2.37
2018-12-18T21:12:24.563Z,2.20
2018-12-18T21:14:52.118Z,1.77
2018-12-18T21:17:19.654Z,2.20
2018-12-18T21:19:47.197Z,2.17
2018-12-18T21:22:14.732Z,1.97
2018-12-18T21:24:42.392Z,1.73
2018-12-18T21:27:10.029Z,2.30
2018-12-18T21:29:37.582Z,2.33
2018-12-18T21:32:05.183Z,2.00
2018-12-18T21:34:32.735Z,2.00
2018-12-18T21:37:00.282Z,2.20
2018-12-18T21:39:27.832Z,3.17
2018-12-18T21:41:55.346Z,2.90
2018-12-18T21:44:22.928Z,2.70
2018-12-18T21:46:50.487Z,2.17
2018-12-18T21:49:19.208Z,2.80
2018-12-18T21:51:47.023Z,2.03
2018-12-18T21:54:14.542Z,2.10
2018-12-18T21:56:42.198Z,2.40
2018-12-18T21:59:09.775Z,2.20
2018-12-18T22:01:38.276Z,2.37
2018-12-18T22:04:05.875Z,1.93
2018-12-18T22:06:33.445Z,1.80
2018-12-18T22:09:01.011Z,1.83
2018-12-18T22:11:28.543Z,1.90
2018-12-18T22:13:56.121Z,1.87
2018-12-18T22:16:23.657Z,2.60
2018-12-18T22:18:51.431Z,1.50
2018-12-18T22:21:19.449Z,1.60
2018-12-18T22:23:46.961Z,1.70
2018-12-18T22:26:14.679Z,2.07
2018-12-18T22:28:42.289Z,2.07
2018-12-18T22:31:09.832Z,2.20
2018-12-18T22:33:37.351Z,2.00
2018-12-18T22:36:05.147Z,1.37
2018-12-18T22:38:33.477Z,1.83
2018-12-18T22:41:01.031Z,1.70
2018-12-18T22:43:28.579Z,2.83
2018-12-18T22:45:56.106Z,1.70
2018-12-18T22:48:23.724Z,1.97
2018-12-18T22:50:51.291Z,1.80
2018-12-18T22:53:18.820Z,1.87
2018-12-18T22:55:46.507Z,1.67
2018-12-18T22:58:14.025Z,2.03
2018-12-18T23:00:47.409Z,1.70
2018-12-18T23:03:15.026Z,1.43
2018-12-18T23:05:42.549Z,2.00
2018-12-18T23:08:12.741Z,1.37
2018-12-18T23:10:40.508Z,1.90
2018-12-18T23:13:08.089Z,1.73
2018-12-18T23:15:35.753Z,1.90
2018-12-18T23:18:03.412Z,1.43
2018-12-18T23:20:30.969Z,1.30
2018-12-18T23:22:58.512Z,1.23
2018-12-18T23:25:26.042Z,1.63
2018-12-18T23:27:53.714Z,1.93
2018-12-18T23:30:21.437Z,1.33
2018-12-18T23:32:49.065Z,1.37
2018-12-18T23:35:16.612Z,2.07
2018-12-18T23:37:44.230Z,1.47
2018-12-18T23:40:11.816Z,1.50
2018-12-18T23:42:39.455Z,1.83
2018-12-18T23:45:07.055Z,1.23
2018-12-18T23:47:34.613Z,1.70
2018-12-18T23:50:02.455Z,1.30
2018-12-18T23:52:30.159Z,1.77
2018-12-18T23:54:57.682Z,1.57
2018-12-18T23:57:25.266Z,1.87
2018-12-18T23:59:53.725Z,1.70
